sensor_id;sensor_type;location;lat;lon;timestamp;pressure;altitude;pressure_sealevel;temperature;humidity
53340;BME280;46212;50.258;19.062;2024-01-27T00:00:39;98844.53;;;4.33;95.91
53340;BME280;46212;50.258;19.062;2024-01-27T00:03:04;98842.81;;;4.46;94.98
53340;BME280;46212;50.258;19.062;2024-01-27T00:05:30;98839.25;;;4.49;93.32
53340;BME280;46212;50.258;19.062;2024-01-27T00:07:55;98856.88;;;4.45;92.96
53340;BME280;46212;50.258;19.062;2024-01-27T00:10:21;98845.16;;;4.44;91.78
53340;BME280;46212;50.258;19.062;2024-01-27T00:12:46;98853.06;;;4.35;92.25
53340;BME280;46212;50.258;19.062;2024-01-27T00:15:12;98853.25;;;4.21;92.23
53340;BME280;46212;50.258;19.062;2024-01-27T00:17:37;98875.19;;;4.14;92.66
53340;BME280;46212;50.258;19.062;2024-01-27T00:20:03;98877.59;;;4.08;92.99
53340;BME280;46212;50.258;19.062;2024-01-27T00:22:28;98880.88;;;4.30;92.19
53340;BME280;46212;50.258;19.062;2024-01-27T00:24:54;98909.31;;;4.36;92.11
53340;BME280;46212;50.258;19.062;2024-01-27T00:27:19;98904.66;;;4.33;92.05
53340;BME280;46212;50.258;19.062;2024-01-27T00:29:44;98896.13;;;4.27;92.12
53340;BME280;46212;50.258;19.062;2024-01-27T00:32:10;98897.59;;;3.98;92.24
53340;BME280;46212;50.258;19.062;2024-01-27T00:34:35;98902.06;;;4.19;91.46
53340;BME280;46212;50.258;19.062;2024-01-27T00:37:01;98918.00;;;4.27;91.77
53340;BME280;46212;50.258;19.062;2024-01-27T00:39:26;98928.94;;;4.27;92.12
53340;BME280;46212;50.258;19.062;2024-01-27T00:41:52;98930.69;;;4.07;92.90
53340;BME280;46212;50.258;19.062;2024-01-27T00:44:20;98935.91;;;4.32;92.67
53340;BME280;46212;50.258;19.062;2024-01-27T00:46:45;98933.44;;;4.45;91.83
53340;BME280;46212;50.258;19.062;2024-01-27T00:49:10;98942.16;;;4.33;92.22
53340;BME280;46212;50.258;19.062;2024-01-27T00:51:36;98942.63;;;4.27;91.38
53340;BME280;46212;50.258;19.062;2024-01-27T00:54:01;98948.34;;;4.40;91.17
53340;BME280;46212;50.258;19.062;2024-01-27T00:56:27;98960.16;;;4.30;91.17
53340;BME280;46212;50.258;19.062;2024-01-27T00:58:52;98958.53;;;4.36;90.25
53340;BME280;46212;50.258;19.062;2024-01-27T01:01:17;98937.31;;;4.06;89.68
53340;BME280;46212;50.258;19.062;2024-01-27T01:03:43;98963.22;;;4.36;89.52
53340;BME280;46212;50.258;19.062;2024-01-27T01:06:08;98955.97;;;4.59;87.43
53340;BME280;46212;50.258;19.062;2024-01-27T01:08:34;98968.09;;;4.55;87.92
53340;BME280;46212;50.258;19.062;2024-01-27T01:10:59;98953.91;;;4.29;88.41
53340;BME280;46212;50.258;19.062;2024-01-27T01:13:24;98955.09;;;4.28;88.20
53340;BME280;46212;50.258;19.062;2024-01-27T01:15:50;98961.63;;;4.38;87.81
53340;BME280;46212;50.258;19.062;2024-01-27T01:18:15;98967.59;;;4.26;88.05
53340;BME280;46212;50.258;19.062;2024-01-27T01:20:40;98968.34;;;4.34;87.86
53340;BME280;46212;50.258;19.062;2024-01-27T01:23:06;98964.50;;;4.24;89.21
53340;BME280;46212;50.258;19.062;2024-01-27T01:25:32;98981.31;;;4.22;88.87
53340;BME280;46212;50.258;19.062;2024-01-27T01:27:57;98997.63;;;4.33;89.49
53340;BME280;46212;50.258;19.062;2024-01-27T01:30:23;98979.59;;;4.39;89.03
53340;BME280;46212;50.258;19.062;2024-01-27T01:32:48;98983.59;;;4.31;89.09
53340;BME280;46212;50.258;19.062;2024-01-27T01:35:14;98988.50;;;4.06;89.35
53340;BME280;46212;50.258;19.062;2024-01-27T01:37:39;98992.53;;;4.35;86.84
53340;BME280;46212;50.258;19.062;2024-01-27T01:40:06;99001.47;;;4.39;86.65
53340;BME280;46212;50.258;19.062;2024-01-27T01:42:32;98995.81;;;4.16;86.40
53340;BME280;46212;50.258;19.062;2024-01-27T01:44:57;99003.19;;;4.19;86.05
53340;BME280;46212;50.258;19.062;2024-01-27T01:47:23;98995.78;;;4.19;84.76
53340;BME280;46212;50.258;19.062;2024-01-27T01:49:49;98998.97;;;4.11;85.76
53340;BME280;46212;50.258;19.062;2024-01-27T01:52:14;99006.06;;;4.05;86.38
53340;BME280;46212;50.258;19.062;2024-01-27T01:54:48;99000.16;;;4.10;85.63
53340;BME280;46212;50.258;19.062;2024-01-27T01:57:13;99001.31;;;4.12;86.10
53340;BME280;46212;50.258;19.062;2024-01-27T01:59:39;99004.78;;;4.16;85.84
53340;BME280;46212;50.258;19.062;2024-01-27T02:02:06;99011.00;;;4.20;86.02
53340;BME280;46212;50.258;19.062;2024-01-27T02:04:40;99005.91;;;4.22;85.25
53340;BME280;46212;50.258;19.062;2024-01-27T02:07:05;99004.13;;;4.02;85.48
53340;BME280;46212;50.258;19.062;2024-01-27T02:09:30;98999.75;;;4.11;85.51
53340;BME280;46212;50.258;19.062;2024-01-27T02:11:56;98999.88;;;3.97;85.42
53340;BME280;46212;50.258;19.062;2024-01-27T02:14:21;99004.38;;;4.21;85.01
53340;BME280;46212;50.258;19.062;2024-01-27T02:16:50;98987.34;;;4.00;85.34
53340;BME280;46212;50.258;19.062;2024-01-27T02:19:15;99000.44;;;4.22;84.55
53340;BME280;46212;50.258;19.062;2024-01-27T02:21:41;98996.28;;;4.07;85.25
53340;BME280;46212;50.258;19.062;2024-01-27T02:24:09;98981.56;;;3.91;85.63
53340;BME280;46212;50.258;19.062;2024-01-27T02:26:35;98970.84;;;4.14;85.09
53340;BME280;46212;50.258;19.062;2024-01-27T02:29:01;98988.13;;;4.00;85.37
53340;BME280;46212;50.258;19.062;2024-01-27T02:31:26;99002.69;;;3.87;86.27
53340;BME280;46212;50.258;19.062;2024-01-27T02:33:52;98976.41;;;4.00;85.46
53340;BME280;46212;50.258;19.062;2024-01-27T02:36:17;99004.75;;;4.20;85.18
53340;BME280;46212;50.258;19.062;2024-01-27T02:38:42;98983.16;;;3.88;85.84
53340;BME280;46212;50.258;19.062;2024-01-27T02:41:10;98984.31;;;3.87;86.04
53340;BME280;46212;50.258;19.062;2024-01-27T02:43:36;99000.31;;;3.89;86.97
53340;BME280;46212;50.258;19.062;2024-01-27T02:46:02;98983.97;;;3.82;86.93
53340;BME280;46212;50.258;19.062;2024-01-27T02:48:27;98998.06;;;3.80;87.74
53340;BME280;46212;50.258;19.062;2024-01-27T02:50:52;98990.19;;;3.86;87.18
53340;BME280;46212;50.258;19.062;2024-01-27T02:53:18;98998.66;;;4.02;86.81
53340;BME280;46212;50.258;19.062;2024-01-27T02:55:43;99006.53;;;3.96;86.64
53340;BME280;46212;50.258;19.062;2024-01-27T02:58:09;98999.78;;;4.08;86.37
53340;BME280;46212;50.258;19.062;2024-01-27T03:00:34;98990.91;;;3.93;85.88
53340;BME280;46212;50.258;19.062;2024-01-27T03:03:00;99007.16;;;4.14;86.36
53340;BME280;46212;50.258;19.062;2024-01-27T03:05:25;99001.66;;;4.18;86.55
53340;BME280;46212;50.258;19.062;2024-01-27T03:07:51;99024.06;;;3.99;87.56
53340;BME280;46212;50.258;19.062;2024-01-27T03:10:16;99005.50;;;3.72;87.81
53340;BME280;46212;50.258;19.062;2024-01-27T03:12:41;99026.63;;;3.65;88.73
53340;BME280;46212;50.258;19.062;2024-01-27T03:15:07;99021.13;;;3.68;87.13
53340;BME280;46212;50.258;19.062;2024-01-27T03:17:33;99030.81;;;3.84;86.80
53340;BME280;46212;50.258;19.062;2024-01-27T03:19:58;99047.59;;;3.82;86.38
53340;BME280;46212;50.258;19.062;2024-01-27T03:22:23;99036.75;;;3.68;87.23
53340;BME280;46212;50.258;19.062;2024-01-27T03:24:49;99039.53;;;3.61;88.12
53340;BME280;46212;50.258;19.062;2024-01-27T03:27:16;99035.47;;;3.87;87.22
53340;BME280;46212;50.258;19.062;2024-01-27T03:29:42;99042.81;;;3.93;86.99
53340;BME280;46212;50.258;19.062;2024-01-27T03:32:07;99020.31;;;3.75;87.14
53340;BME280;46212;50.258;19.062;2024-01-27T03:34:33;99049.53;;;3.82;87.59
53340;BME280;46212;50.258;19.062;2024-01-27T03:36:58;99056.13;;;3.91;87.52
53340;BME280;46212;50.258;19.062;2024-01-27T03:39:23;99063.97;;;3.82;87.54
53340;BME280;46212;50.258;19.062;2024-01-27T03:41:49;99064.78;;;3.83;87.73
53340;BME280;46212;50.258;19.062;2024-01-27T03:44:14;99050.44;;;3.64;87.86
53340;BME280;46212;50.258;19.062;2024-01-27T03:46:40;99058.25;;;3.55;88.82
53340;BME280;46212;50.258;19.062;2024-01-27T03:49:05;99051.25;;;3.54;88.79
53340;BME280;46212;50.258;19.062;2024-01-27T03:51:30;99053.56;;;3.59;88.29
53340;BME280;46212;50.258;19.062;2024-01-27T03:53:56;99070.41;;;3.51;88.39
53340;BME280;46212;50.258;19.062;2024-01-27T03:56:21;99056.78;;;3.40;89.06
53340;BME280;46212;50.258;19.062;2024-01-27T03:58:46;99071.13;;;3.58;88.84
53340;BME280;46212;50.258;19.062;2024-01-27T04:01:12;99087.41;;;3.80;87.11
53340;BME280;46212;50.258;19.062;2024-01-27T04:03:37;99077.38;;;3.59;86.90
53340;BME280;46212;50.258;19.062;2024-01-27T04:06:02;99095.34;;;3.49;87.62
53340;BME280;46212;50.258;19.062;2024-01-27T04:08:31;99087.25;;;3.32;88.17
53340;BME280;46212;50.258;19.062;2024-01-27T04:10:56;99100.41;;;3.54;87.29
53340;BME280;46212;50.258;19.062;2024-01-27T04:13:22;99109.34;;;3.58;87.98
53340;BME280;46212;50.258;19.062;2024-01-27T04:15:47;99117.94;;;3.67;87.27
53340;BME280;46212;50.258;19.062;2024-01-27T04:18:13;99098.50;;;3.48;86.96
53340;BME280;46212;50.258;19.062;2024-01-27T04:20:39;99108.59;;;3.58;87.76
53340;BME280;46212;50.258;19.062;2024-01-27T04:23:04;99093.06;;;3.41;87.12
53340;BME280;46212;50.258;19.062;2024-01-27T04:25:29;99099.59;;;3.64;87.27
53340;BME280;46212;50.258;19.062;2024-01-27T04:27:55;99103.53;;;3.56;87.35
53340;BME280;46212;50.258;19.062;2024-01-27T04:30:20;99110.13;;;3.66;86.64
53340;BME280;46212;50.258;19.062;2024-01-27T04:32:46;99127.63;;;3.75;86.14
53340;BME280;46212;50.258;19.062;2024-01-27T04:35:12;99102.75;;;3.56;85.91
53340;BME280;46212;50.258;19.062;2024-01-27T04:37:38;99148.69;;;3.79;85.27
53340;BME280;46212;50.258;19.062;2024-01-27T04:40:04;99138.97;;;3.74;84.18
53340;BME280;46212;50.258;19.062;2024-01-27T04:42:33;99130.78;;;3.74;84.93
53340;BME280;46212;50.258;19.062;2024-01-27T04:44:58;99132.75;;;3.66;84.54
53340;BME280;46212;50.258;19.062;2024-01-27T04:47:23;99134.34;;;3.53;85.00
53340;BME280;46212;50.258;19.062;2024-01-27T04:49:49;99133.91;;;3.69;84.60
53340;BME280;46212;50.258;19.062;2024-01-27T04:52:14;99140.16;;;3.62;84.38
53340;BME280;46212;50.258;19.062;2024-01-27T04:54:39;99119.13;;;3.56;84.93
53340;BME280;46212;50.258;19.062;2024-01-27T04:57:05;99128.41;;;3.76;83.49
53340;BME280;46212;50.258;19.062;2024-01-27T04:59:30;99112.97;;;3.34;83.26
53340;BME280;46212;50.258;19.062;2024-01-27T05:01:55;99144.13;;;3.47;83.77
53340;BME280;46212;50.258;19.062;2024-01-27T05:04:21;99128.19;;;3.35;84.35
53340;BME280;46212;50.258;19.062;2024-01-27T05:06:46;99137.09;;;3.53;83.44
53340;BME280;46212;50.258;19.062;2024-01-27T05:09:12;99133.19;;;3.54;83.45
53340;BME280;46212;50.258;19.062;2024-01-27T05:11:37;99134.38;;;3.46;83.11
53340;BME280;46212;50.258;19.062;2024-01-27T05:14:03;99131.25;;;3.51;83.13
53340;BME280;46212;50.258;19.062;2024-01-27T05:16:28;99137.84;;;3.64;82.43
53340;BME280;46212;50.258;19.062;2024-01-27T05:18:54;99137.75;;;3.82;81.71
53340;BME280;46212;50.258;19.062;2024-01-27T05:21:19;99150.72;;;3.57;81.43
53340;BME280;46212;50.258;19.062;2024-01-27T05:23:45;99137.47;;;3.55;81.22
53340;BME280;46212;50.258;19.062;2024-01-27T05:26:10;99153.03;;;3.65;81.32
53340;BME280;46212;50.258;19.062;2024-01-27T05:28:39;99142.56;;;3.46;81.11
53340;BME280;46212;50.258;19.062;2024-01-27T05:31:08;99142.97;;;3.41;81.43
53340;BME280;46212;50.258;19.062;2024-01-27T05:33:34;99128.97;;;3.39;81.35
53340;BME280;46212;50.258;19.062;2024-01-27T05:36:00;99154.63;;;3.52;80.67
53340;BME280;46212;50.258;19.062;2024-01-27T05:38:25;99134.78;;;3.41;81.42
53340;BME280;46212;50.258;19.062;2024-01-27T05:40:51;99144.44;;;3.67;81.01
53340;BME280;46212;50.258;19.062;2024-01-27T05:43:17;99130.13;;;3.42;80.89
53340;BME280;46212;50.258;19.062;2024-01-27T05:45:43;99145.69;;;3.45;82.05
53340;BME280;46212;50.258;19.062;2024-01-27T05:48:10;99137.53;;;3.34;81.78
53340;BME280;46212;50.258;19.062;2024-01-27T05:50:35;99156.63;;;3.38;81.21
53340;BME280;46212;50.258;19.062;2024-01-27T05:53:01;99146.09;;;3.36;81.67
53340;BME280;46212;50.258;19.062;2024-01-27T05:55:26;99151.97;;;3.28;81.96
53340;BME280;46212;50.258;19.062;2024-01-27T05:57:52;99148.81;;;3.36;81.34
53340;BME280;46212;50.258;19.062;2024-01-27T06:00:17;99132.50;;;3.18;82.04
53340;BME280;46212;50.258;19.062;2024-01-27T06:02:43;99159.00;;;3.25;81.79
53340;BME280;46212;50.258;19.062;2024-01-27T06:05:08;99164.44;;;3.36;81.94
53340;BME280;46212;50.258;19.062;2024-01-27T06:07:37;99163.25;;;3.33;81.94
53340;BME280;46212;50.258;19.062;2024-01-27T06:10:02;99169.13;;;3.28;81.59
53340;BME280;46212;50.258;19.062;2024-01-27T06:12:28;99150.03;;;3.25;81.48
53340;BME280;46212;50.258;19.062;2024-01-27T06:14:53;99160.16;;;3.42;81.07
53340;BME280;46212;50.258;19.062;2024-01-27T06:17:18;99176.53;;;3.38;80.53
53340;BME280;46212;50.258;19.062;2024-01-27T06:19:44;99174.22;;;3.26;80.48
53340;BME280;46212;50.258;19.062;2024-01-27T06:22:10;99166.00;;;3.33;80.62
53340;BME280;46212;50.258;19.062;2024-01-27T06:24:42;99182.38;;;3.44;80.39
53340;BME280;46212;50.258;19.062;2024-01-27T06:27:07;99198.38;;;3.24;80.40
53340;BME280;46212;50.258;19.062;2024-01-27T06:29:33;99197.97;;;3.36;79.97
53340;BME280;46212;50.258;19.062;2024-01-27T06:31:58;99167.97;;;3.29;80.40
53340;BME280;46212;50.258;19.062;2024-01-27T06:34:23;99183.16;;;3.41;80.17
53340;BME280;46212;50.258;19.062;2024-01-27T06:36:49;99171.50;;;3.30;79.90
53340;BME280;46212;50.258;19.062;2024-01-27T06:39:14;99187.81;;;3.44;79.46
53340;BME280;46212;50.258;19.062;2024-01-27T06:41:39;99170.72;;;3.18;79.75
53340;BME280;46212;50.258;19.062;2024-01-27T06:44:05;99170.66;;;3.36;79.69
53340;BME280;46212;50.258;19.062;2024-01-27T06:46:30;99183.53;;;3.43;78.98
53340;BME280;46212;50.258;19.062;2024-01-27T06:48:56;99175.78;;;3.20;79.57
53340;BME280;46212;50.258;19.062;2024-01-27T06:51:21;99174.22;;;3.22;79.46
53340;BME280;46212;50.258;19.062;2024-01-27T06:53:47;99175.75;;;3.41;78.78
53340;BME280;46212;50.258;19.062;2024-01-27T06:56:13;99182.78;;;3.42;78.64
53340;BME280;46212;50.258;19.062;2024-01-27T06:58:39;99190.19;;;3.35;79.33
53340;BME280;46212;50.258;19.062;2024-01-27T07:01:06;99197.94;;;3.47;78.61
53340;BME280;46212;50.258;19.062;2024-01-27T07:03:32;99208.53;;;3.16;78.61
53340;BME280;46212;50.258;19.062;2024-01-27T07:05:57;99188.25;;;3.17;79.35
53340;BME280;46212;50.258;19.062;2024-01-27T07:08:26;99194.13;;;3.23;79.49
53340;BME280;46212;50.258;19.062;2024-01-27T07:10:51;99198.38;;;3.42;79.17
53340;BME280;46212;50.258;19.062;2024-01-27T07:13:17;99185.50;;;3.28;79.10
53340;BME280;46212;50.258;19.062;2024-01-27T07:15:42;99211.25;;;3.34;79.00
53340;BME280;46212;50.258;19.062;2024-01-27T07:18:07;99202.25;;;3.41;78.03
53340;BME280;46212;50.258;19.062;2024-01-27T07:20:34;99183.91;;;3.48;77.70
53340;BME280;46212;50.258;19.062;2024-01-27T07:23:00;99219.72;;;3.71;77.01
53340;BME280;46212;50.258;19.062;2024-01-27T07:25:26;99214.69;;;3.56;77.11
53340;BME280;46212;50.258;19.062;2024-01-27T07:27:53;99197.94;;;3.57;77.38
53340;BME280;46212;50.258;19.062;2024-01-27T07:30:19;99206.13;;;3.61;77.18
53340;BME280;46212;50.258;19.062;2024-01-27T07:32:44;99194.44;;;3.43;77.36
53340;BME280;46212;50.258;19.062;2024-01-27T07:35:10;99187.44;;;3.45;77.07
53340;BME280;46212;50.258;19.062;2024-01-27T07:37:35;99201.09;;;3.42;77.53
53340;BME280;46212;50.258;19.062;2024-01-27T07:40:01;99206.94;;;3.51;76.69
53340;BME280;46212;50.258;19.062;2024-01-27T07:42:27;99193.28;;;3.51;76.85
53340;BME280;46212;50.258;19.062;2024-01-27T07:44:52;99174.16;;;3.40;76.75
53340;BME280;46212;50.258;19.062;2024-01-27T07:47:18;99242.41;;;3.61;76.27
53340;BME280;46212;50.258;19.062;2024-01-27T07:49:43;99196.00;;;3.51;76.65
53340;BME280;46212;50.258;19.062;2024-01-27T07:52:10;99212.78;;;3.46;76.11
53340;BME280;46212;50.258;19.062;2024-01-27T07:54:35;99215.53;;;3.42;76.65
53340;BME280;46212;50.258;19.062;2024-01-27T07:57:04;99229.56;;;3.44;76.20
53340;BME280;46212;50.258;19.062;2024-01-27T07:59:30;99200.75;;;3.18;76.70
53340;BME280;46212;50.258;19.062;2024-01-27T08:01:55;99224.09;;;3.48;76.20
53340;BME280;46212;50.258;19.062;2024-01-27T08:04:21;99227.19;;;3.50;75.54
53340;BME280;46212;50.258;19.062;2024-01-27T08:06:48;99205.75;;;3.52;75.74
53340;BME280;46212;50.258;19.062;2024-01-27T08:09:14;99213.53;;;3.60;75.06
53340;BME280;46212;50.258;19.062;2024-01-27T08:11:40;99213.56;;;3.50;75.40
53340;BME280;46212;50.258;19.062;2024-01-27T08:14:05;99203.84;;;3.31;76.16
53340;BME280;46212;50.258;19.062;2024-01-27T08:16:30;99243.22;;;3.37;76.00
53340;BME280;46212;50.258;19.062;2024-01-27T08:18:56;99218.63;;;3.41;76.14
53340;BME280;46212;50.258;19.062;2024-01-27T08:21:21;99205.03;;;3.27;76.32
53340;BME280;46212;50.258;19.062;2024-01-27T08:23:47;99204.94;;;3.58;75.53
53340;BME280;46212;50.258;19.062;2024-01-27T08:26:13;99188.19;;;3.49;75.63
53340;BME280;46212;50.258;19.062;2024-01-27T08:28:38;99230.34;;;3.52;76.01
53340;BME280;46212;50.258;19.062;2024-01-27T08:31:04;99210.44;;;3.55;75.47
53340;BME280;46212;50.258;19.062;2024-01-27T08:33:30;99206.50;;;3.56;75.69
53340;BME280;46212;50.258;19.062;2024-01-27T08:35:55;99217.41;;;3.77;74.66
53340;BME280;46212;50.258;19.062;2024-01-27T08:38:20;99225.25;;;3.36;76.55
53340;BME280;46212;50.258;19.062;2024-01-27T08:40:46;99218.66;;;3.30;77.71
53340;BME280;46212;50.258;19.062;2024-01-27T08:43:11;99233.09;;;3.16;78.78
53340;BME280;46212;50.258;19.062;2024-01-27T08:45:38;99201.13;;;3.06;80.08
53340;BME280;46212;50.258;19.062;2024-01-27T08:48:04;99219.84;;;3.22;80.92
53340;BME280;46212;50.258;19.062;2024-01-27T08:50:30;99211.66;;;3.11;82.29
53340;BME280;46212;50.258;19.062;2024-01-27T08:52:55;99231.53;;;3.19;82.92
53340;BME280;46212;50.258;19.062;2024-01-27T08:55:20;99220.63;;;3.05;84.02
53340;BME280;46212;50.258;19.062;2024-01-27T08:57:49;99220.25;;;2.82;85.26
53340;BME280;46212;50.258;19.062;2024-01-27T09:00:14;99211.28;;;2.60;87.29
53340;BME280;46212;50.258;19.062;2024-01-27T09:02:44;99216.72;;;2.53;88.37
53340;BME280;46212;50.258;19.062;2024-01-27T09:05:10;99215.88;;;2.38;89.47
53340;BME280;46212;50.258;19.062;2024-01-27T09:07:54;99250.63;;;2.62;90.67
53340;BME280;46212;50.258;19.062;2024-01-27T09:10:19;99247.09;;;2.62;91.16
53340;BME280;46212;50.258;19.062;2024-01-27T09:12:45;99243.97;;;2.49;91.58
53340;BME280;46212;50.258;19.062;2024-01-27T09:15:10;99245.09;;;2.34;92.80
53340;BME280;46212;50.258;19.062;2024-01-27T09:17:36;99245.44;;;2.29;93.91
53340;BME280;46212;50.258;19.062;2024-01-27T09:20:02;99234.13;;;2.17;94.66
53340;BME280;46212;50.258;19.062;2024-01-27T09:22:28;99253.63;;;2.33;94.85
53340;BME280;46212;50.258;19.062;2024-01-27T09:24:53;99228.41;;;2.53;93.25
53340;BME280;46212;50.258;19.062;2024-01-27T09:27:18;99256.47;;;2.79;92.95
53340;BME280;46212;50.258;19.062;2024-01-27T09:29:44;99278.66;;;2.59;93.50
53340;BME280;46212;50.258;19.062;2024-01-27T09:32:09;99250.16;;;2.39;95.08
53340;BME280;46212;50.258;19.062;2024-01-27T09:34:35;99251.78;;;2.61;95.55
53340;BME280;46212;50.258;19.062;2024-01-27T09:37:01;99232.22;;;2.28;95.51
53340;BME280;46212;50.258;19.062;2024-01-27T09:39:26;99257.53;;;2.25;96.15
53340;BME280;46212;50.258;19.062;2024-01-27T09:41:53;99243.50;;;2.30;97.10
53340;BME280;46212;50.258;19.062;2024-01-27T09:44:20;99218.06;;;1.90;97.38
53340;BME280;46212;50.258;19.062;2024-01-27T09:46:45;99260.97;;;2.14;98.40
53340;BME280;46212;50.258;19.062;2024-01-27T09:49:13;99230.28;;;2.28;98.50
53340;BME280;46212;50.258;19.062;2024-01-27T09:51:41;99240.38;;;2.21;97.15
53340;BME280;46212;50.258;19.062;2024-01-27T09:54:06;99245.44;;;2.26;97.76
53340;BME280;46212;50.258;19.062;2024-01-27T09:56:32;99242.34;;;2.31;98.27
53340;BME280;46212;50.258;19.062;2024-01-27T09:58:58;99230.28;;;2.32;98.50
53340;BME280;46212;50.258;19.062;2024-01-27T10:01:24;99236.53;;;2.39;98.17
53340;BME280;46212;50.258;19.062;2024-01-27T10:03:54;99238.53;;;2.56;97.79
53340;BME280;46212;50.258;19.062;2024-01-27T10:06:20;99240.47;;;2.66;98.14
53340;BME280;46212;50.258;19.062;2024-01-27T10:08:52;99227.25;;;2.65;96.49
53340;BME280;46212;50.258;19.062;2024-01-27T10:11:20;99231.50;;;2.52;96.99
53340;BME280;46212;50.258;19.062;2024-01-27T10:13:53;99224.88;;;2.46;97.21
53340;BME280;46212;50.258;19.062;2024-01-27T10:16:19;99210.41;;;2.35;97.32
53340;BME280;46212;50.258;19.062;2024-01-27T10:18:45;99216.25;;;2.30;97.12
53340;BME280;46212;50.258;19.062;2024-01-27T10:21:14;99232.28;;;2.49;97.22
53340;BME280;46212;50.258;19.062;2024-01-27T10:23:40;99245.16;;;2.69;96.60
53340;BME280;46212;50.258;19.062;2024-01-27T10:26:08;99238.16;;;2.72;95.40
53340;BME280;46212;50.258;19.062;2024-01-27T10:28:33;99245.16;;;2.73;95.98
53340;BME280;46212;50.258;19.062;2024-01-27T10:31:11;99240.50;;;2.91;94.96
53340;BME280;46212;50.258;19.062;2024-01-27T10:33:38;99249.47;;;2.85;94.73
53340;BME280;46212;50.258;19.062;2024-01-27T10:36:03;99252.59;;;2.94;94.77
53340;BME280;46212;50.258;19.062;2024-01-27T10:38:37;99246.34;;;2.83;94.60
53340;BME280;46212;50.258;19.062;2024-01-27T10:41:07;99259.59;;;2.98;94.33
53340;BME280;46212;50.258;19.062;2024-01-27T10:43:35;99229.19;;;2.93;93.55
53340;BME280;46212;50.258;19.062;2024-01-27T10:46:03;99228.03;;;2.87;94.26
53340;BME280;46212;50.258;19.062;2024-01-27T10:48:30;99246.38;;;3.00;94.85
53340;BME280;46212;50.258;19.062;2024-01-27T10:50:58;99248.28;;;3.14;94.32
53340;BME280;46212;50.258;19.062;2024-01-27T10:53:26;99260.38;;;2.92;94.04
53340;BME280;46212;50.258;19.062;2024-01-27T10:55:57;99255.31;;;3.18;93.72
53340;BME280;46212;50.258;19.062;2024-01-27T10:58:23;99254.53;;;2.93;93.33
53340;BME280;46212;50.258;19.062;2024-01-27T11:00:50;99255.31;;;2.97;93.63
53340;BME280;46212;50.258;19.062;2024-01-27T11:03:18;99257.28;;;2.97;93.85
53340;BME280;46212;50.258;19.062;2024-01-27T11:05:46;99246.34;;;2.97;93.57
53340;BME280;46212;50.258;19.062;2024-01-27T11:08:12;99249.47;;;3.09;93.34
53340;BME280;46212;50.258;19.062;2024-01-27T11:10:38;99246.72;;;2.78;93.96
53340;BME280;46212;50.258;19.062;2024-01-27T11:13:04;99281.81;;;3.14;93.62
53340;BME280;46212;50.258;19.062;2024-01-27T11:15:30;99267.81;;;3.19;94.13
53340;BME280;46212;50.258;19.062;2024-01-27T11:17:59;99270.13;;;3.14;93.54
53340;BME280;46212;50.258;19.062;2024-01-27T11:20:33;99263.09;;;2.99;94.37
53340;BME280;46212;50.258;19.062;2024-01-27T11:23:14;99272.47;;;2.94;94.96
53340;BME280;46212;50.258;19.062;2024-01-27T11:25:40;99289.59;;;2.98;94.38
53340;BME280;46212;50.258;19.062;2024-01-27T11:28:15;99287.25;;;2.90;96.11
53340;BME280;46212;50.258;19.062;2024-01-27T11:30:47;99260.38;;;2.88;96.19
53340;BME280;46212;50.258;19.062;2024-01-27T11:33:13;99281.44;;;2.95;96.18
53340;BME280;46212;50.258;19.062;2024-01-27T11:35:39;99291.97;;;3.00;96.16
53340;BME280;46212;50.258;19.062;2024-01-27T11:38:04;99287.25;;;2.90;97.29
53340;BME280;46212;50.258;19.062;2024-01-27T11:40:30;99296.22;;;2.83;97.65
53340;BME280;46212;50.258;19.062;2024-01-27T11:43:00;99279.09;;;2.90;97.38
53340;BME280;46212;50.258;19.062;2024-01-27T11:45:26;99295.84;;;2.92;97.90
53340;BME280;46212;50.258;19.062;2024-01-27T11:47:55;99286.84;;;2.70;97.95
53340;BME280;46212;50.258;19.062;2024-01-27T11:50:21;99299.34;;;2.92;98.44
53340;BME280;46212;50.258;19.062;2024-01-27T11:52:47;99302.47;;;2.87;98.27
53340;BME280;46212;50.258;19.062;2024-01-27T11:55:12;99300.16;;;3.07;97.61
53340;BME280;46212;50.258;19.062;2024-01-27T11:57:40;99292.34;;;3.02;97.60
53340;BME280;46212;50.258;19.062;2024-01-27T12:00:06;99297.41;;;3.00;97.03
53340;BME280;46212;50.258;19.062;2024-01-27T12:02:32;99300.16;;;3.00;97.13
53340;BME280;46212;50.258;19.062;2024-01-27T12:04:57;99292.28;;;2.59;98.74
53340;BME280;46212;50.258;19.062;2024-01-27T12:07:23;99307.94;;;2.91;98.63
53340;BME280;46212;50.258;19.062;2024-01-27T12:09:49;99323.47;;;2.80;99.03
53340;BME280;46212;50.258;19.062;2024-01-27T12:12:15;99290.34;;;2.60;98.97
53340;BME280;46212;50.258;19.062;2024-01-27T12:14:45;99323.50;;;2.83;99.72
53340;BME280;46212;50.258;19.062;2024-01-27T12:17:11;99332.84;;;2.79;99.21
53340;BME280;46212;50.258;19.062;2024-01-27T12:19:37;99327.00;;;2.84;99.53
53340;BME280;46212;50.258;19.062;2024-01-27T12:22:03;99326.63;;;2.92;99.02
53340;BME280;46212;50.258;19.062;2024-01-27T12:24:29;99329.75;;;2.91;98.94
53340;BME280;46212;50.258;19.062;2024-01-27T12:26:56;99335.97;;;2.84;99.15
53340;BME280;46212;50.258;19.062;2024-01-27T12:29:22;99358.59;;;2.99;98.65
53340;BME280;46212;50.258;19.062;2024-01-27T12:31:48;99341.44;;;2.88;98.85
53340;BME280;46212;50.258;19.062;2024-01-27T12:34:14;99337.50;;;2.75;99.18
53340;BME280;46212;50.258;19.062;2024-01-27T12:36:42;99343.34;;;2.77;100.00
53340;BME280;46212;50.258;19.062;2024-01-27T12:39:09;99334.00;;;2.74;100.00
53340;BME280;46212;50.258;19.062;2024-01-27T12:41:34;99339.75;;;2.41;100.00
53340;BME280;46212;50.258;19.062;2024-01-27T12:44:00;99327.28;;;2.43;100.00
53340;BME280;46212;50.258;19.062;2024-01-27T12:46:29;99332.00;;;2.60;100.00
53340;BME280;46212;50.258;19.062;2024-01-27T12:48:55;99338.31;;;2.79;100.00
53340;BME280;46212;50.258;19.062;2024-01-27T12:51:20;99341.41;;;2.77;100.00
53340;BME280;46212;50.258;19.062;2024-01-27T12:53:46;99338.63;;;2.66;100.00